^^
Station Historical Data
Daily Summary for February 5, 2018 Units:  Both    English   Metric
« Previous Day
Next Day »
Daily Weekly Monthly Yearly Custom
  High: Low: Average:
Temperature: TemperatureF °F /  -17.8 °C 64.2 °F /  17.9 °C 77 °F /  25 °C
Dew Point: DewpointF °F /  -17.8 °C 43.5 °F /  6.4 °C 53.6 °F /  12 °C
Humidity: Humidity% 19% 50%
Wind Speed: WindSpeedMPHmph /  0km/h - 2.5mph /  4km/h
Wind Gust: WindSpeedGustMPHmph /  0km/h - -
Wind- - SE
Pressure: PressureIn in /  0 hPa 29.54 in /  1000.2 hPa -
Precipitation: 0.02 in /  0.51 mm    
Historical Graphs
 
 
Tabular Data for February 5, 2018
Time Temperature Dew Point Pressure Wind Wind Speed Wind Gust Humidity Rainfall Rate (Hourly) solar Conditions
TemperatureF °F /  -17.8 °C DewpointF °F /  -17.8 °C PressureInin /  0hPa Calm     Humidity% HourlyPrecipInin /  0mm SolarRadiationWatts/m^2 W/m2 Conditions
00:01 72.0 °F /  22.2 °C 54.3 °F /  12.4 °C 29.68in /  1005hPa Calm     54% 0.00in /  0mm 0.0 W/m2
00:06 72.0 °F /  22.2 °C 54.3 °F /  12.4 °C 29.68in /  1005hPa Calm     54% 0.00in /  0mm 0.0 W/m2
00:11 72.0 °F /  22.2 °C 54.3 °F /  12.4 °C 29.68in /  1005hPa Calm     54% 0.00in /  0mm 0.0 W/m2
00:16 71.8 °F /  22.1 °C 54.3 °F /  12.4 °C 29.68in /  1005hPa Calm     54% 0.00in /  0mm 0.0 W/m2
00:22 72.0 °F /  22.2 °C 54.3 °F /  12.4 °C 29.68in /  1005hPa Calm   2.0mph /  3.2km/h 54% 0.00in /  0mm 0.0 W/m2
00:27 72.0 °F /  22.2 °C 54.9 °F /  12.7 °C 29.68in /  1005hPa SSW 2.0mph /  3.2km/h 2.0mph /  3.2km/h 55% 0.00in /  0mm 0.0 W/m2
00:32 72.0 °F /  22.2 °C 54.9 °F /  12.7 °C 29.68in /  1005hPa SSW 0.9mph /  1.4km/h 3.0mph /  4.8km/h 55% 0.00in /  0mm 0.0 W/m2
00:37 72.0 °F /  22.2 °C 54.9 °F /  12.7 °C 29.67in /  1004.6hPa SSW 0.9mph /  1.4km/h 2.0mph /  3.2km/h 55% 0.00in /  0mm 0.0 W/m2
00:42 72.0 °F /  22.2 °C 54.9 °F /  12.7 °C 29.67in /  1004.6hPa SSE 2.0mph /  3.2km/h 7.0mph /  11.3km/h 55% 0.00in /  0mm 0.0 W/m2
00:47 72.0 °F /  22.2 °C 54.9 °F /  12.7 °C 29.67in /  1004.6hPa South 6.0mph /  9.7km/h 9.0mph /  14.5km/h 55% 0.00in /  0mm 0.0 W/m2
00:52 72.0 °F /  22.2 °C 54.9 °F /  12.7 °C 29.67in /  1004.6hPa SSE 0.9mph /  1.4km/h 12.0mph /  19.3km/h 55% 0.00in /  0mm 0.0 W/m2
00:57 72.0 °F /  22.2 °C 55.4 °F /  13 °C 29.68in /  1005hPa SSE 4.9mph /  7.9km/h 10.0mph /  16.1km/h 56% 0.00in /  0mm 0.0 W/m2
01:03 71.8 °F /  22.1 °C 55.8 °F /  13.2 °C 29.67in /  1004.6hPa SE 4.0mph /  6.4km/h 9.0mph /  14.5km/h 57% 0.00in /  0mm 0.0 W/m2
01:08 71.4 °F /  21.9 °C 55.9 °F /  13.3 °C 29.67in /  1004.6hPa SSE 8.9mph /  14.3km/h 12.0mph /  19.3km/h 58% 0.00in /  0mm 0.0 W/m2
01:13 71.1 °F /  21.7 °C 56.5 °F /  13.6 °C 29.67in /  1004.6hPa SSW 4.9mph /  7.9km/h 9.0mph /  14.5km/h 60% 0.00in /  0mm 0.0 W/m2
01:18 70.7 °F /  21.5 °C 56.1 °F /  13.4 °C 29.67in /  1004.6hPa SE 2.9mph /  4.7km/h 9.0mph /  14.5km/h 60% 0.00in /  0mm 0.0 W/m2
01:23 70.5 °F /  21.4 °C 55.9 °F /  13.3 °C 29.67in /  1004.6hPa SSE 11.0mph /  17.7km/h 13.0mph /  20.9km/h 60% 0.00in /  0mm 0.0 W/m2
01:28 70.3 °F /  21.3 °C 55.8 °F /  13.2 °C 29.67in /  1004.6hPa South 4.0mph /  6.4km/h 11.0mph /  17.7km/h 60% 0.00in /  0mm 0.0 W/m2
01:33 70.3 °F /  21.3 °C 55.4 °F /  13 °C 29.67in /  1004.6hPa Calm   6.0mph /  9.7km/h 59% 0.00in /  0mm 0.0 W/m2
01:38 70.3 °F /  21.3 °C 54.9 °F /  12.7 °C 29.67in /  1004.6hPa South 4.9mph /  7.9km/h 7.0mph /  11.3km/h 58% 0.00in /  0mm 0.0 W/m2
01:43 70.5 °F /  21.4 °C 55.0 °F /  12.8 °C 29.67in /  1004.6hPa SE 0.9mph /  1.4km/h 7.0mph /  11.3km/h 58% 0.00in /  0mm 0.0 W/m2
01:49 70.5 °F /  21.4 °C 55.9 °F /  13.3 °C 29.67in /  1004.6hPa SE 2.9mph /  4.7km/h 7.0mph /  11.3km/h 60% 0.00in /  0mm 0.0 W/m2
01:55 70.3 °F /  21.3 °C 55.8 °F /  13.2 °C 29.67in /  1004.6hPa Calm   3.0mph /  4.8km/h 60% 0.00in /  0mm 0.0 W/m2
02:00 70.2 °F /  21.2 °C 55.6 °F /  13.1 °C 29.67in /  1004.6hPa East 0.9mph /  1.4km/h 9.0mph /  14.5km/h 60% 0.00in /  0mm 0.0 W/m2
02:05 70.0 °F /  21.1 °C 55.4 °F /  13 °C 29.67in /  1004.6hPa SE 2.0mph /  3.2km/h 5.0mph /  8km/h 60% 0.00in /  0mm 0.0 W/m2
02:10 70.0 °F /  21.1 °C 55.9 °F /  13.3 °C 29.67in /  1004.6hPa SE 2.0mph /  3.2km/h 6.0mph /  9.7km/h 61% 0.00in /  0mm 0.0 W/m2
02:15 69.8 °F /  21 °C 55.2 °F /  12.9 °C 29.67in /  1004.6hPa ESE 4.0mph /  6.4km/h 10.0mph /  16.1km/h 60% 0.00in /  0mm 0.0 W/m2
02:20 69.8 °F /  21 °C 54.9 °F /  12.7 °C 29.67in /  1004.6hPa South 6.0mph /  9.7km/h 13.0mph /  20.9km/h 59% 0.00in /  0mm 0.0 W/m2
02:25 70.0 °F /  21.1 °C 55.0 °F /  12.8 °C 29.67in /  1004.6hPa ESE 2.9mph /  4.7km/h 7.0mph /  11.3km/h 59% 0.00in /  0mm 0.0 W/m2
02:30 70.2 °F /  21.2 °C 55.6 °F /  13.1 °C 29.67in /  1004.6hPa SE 2.0mph /  3.2km/h 9.0mph /  14.5km/h 60% 0.00in /  0mm 0.0 W/m2
02:36 70.2 °F /  21.2 °C 55.6 °F /  13.1 °C 29.67in /  1004.6hPa SSW 2.0mph /  3.2km/h 10.0mph /  16.1km/h 60% 0.00in /  0mm 0.0 W/m2
02:41 70.2 °F /  21.2 °C 56.1 °F /  13.4 °C 29.67in /  1004.6hPa SSE 2.0mph /  3.2km/h 6.0mph /  9.7km/h 61% 0.00in /  0mm 0.0 W/m2
02:46 70.2 °F /  21.2 °C 56.1 °F /  13.4 °C 29.67in /  1004.6hPa Calm   3.0mph /  4.8km/h 61% 0.00in /  0mm 0.0 W/m2
02:51 70.2 °F /  21.2 °C 56.1 °F /  13.4 °C 29.67in /  1004.6hPa SE 2.9mph /  4.7km/h 9.0mph /  14.5km/h 61% 0.00in /  0mm 0.0 W/m2
02:56 70.0 °F /  21.1 °C 55.9 °F /  13.3 °C 29.67in /  1004.6hPa ESE 2.9mph /  4.7km/h 5.0mph /  8km/h 61% 0.00in /  0mm 0.0 W/m2
03:01 69.8 °F /  21 °C 56.7 °F /  13.7 °C 29.66in /  1004.3hPa SSE 6.0mph /  9.7km/h 6.0mph /  9.7km/h 63% 0.00in /  0mm 0.0 W/m2
03:06 69.6 °F /  20.9 °C 58.1 °F /  14.5 °C 29.66in /  1004.3hPa Calm   2.0mph /  3.2km/h 67% 0.00in /  0mm 0.0 W/m2
03:11 69.3 °F /  20.7 °C 58.6 °F /  14.8 °C 29.66in /  1004.3hPa SE 4.0mph /  6.4km/h 6.0mph /  9.7km/h 69% 0.00in /  0mm 0.0 W/m2
03:16 68.9 °F /  20.5 °C 59.2 °F /  15.1 °C 29.66in /  1004.3hPa SE 0.9mph /  1.4km/h 4.0mph /  6.4km/h 71% 0.00in /  0mm 0.0 W/m2
03:22 68.5 °F /  20.3 °C 59.9 °F /  15.5 °C 29.65in /  1003.9hPa SE 2.9mph /  4.7km/h 4.0mph /  6.4km/h 74% 0.00in /  0mm 0.0 W/m2
03:27 68.2 °F /  20.1 °C 60.3 °F /  15.7 °C 29.65in /  1003.9hPa Calm   1.0mph /  1.6km/h 76% 0.01in /  0.25mm 0.0 W/m2
03:33 67.8 °F /  19.9 °C 60.3 °F /  15.7 °C 29.64in /  1003.6hPa Calm     77% 0.01in /  0.25mm 0.0 W/m2
03:38 67.5 °F /  19.7 °C 60.4 °F /  15.8 °C 29.63in /  1003.3hPa Calm   1.0mph /  1.6km/h 78% 0.01in /  0.25mm 0.0 W/m2
03:43 66.7 °F /  19.3 °C 60.4 °F /  15.8 °C 29.63in /  1003.3hPa Calm   3.0mph /  4.8km/h 80% 0.01in /  0.25mm 0.0 W/m2
03:48 66.4 °F /  19.1 °C 60.4 °F /  15.8 °C 29.63in /  1003.3hPa SSW 0.9mph /  1.4km/h 2.0mph /  3.2km/h 81% 0.01in /  0.25mm 0.0 W/m2
03:53 65.8 °F /  18.8 °C 60.3 °F /  15.7 °C 29.63in /  1003.3hPa Calm   1.0mph /  1.6km/h 82% 0.01in /  0.25mm 0.0 W/m2
03:58 65.7 °F /  18.7 °C 60.4 °F /  15.8 °C 29.63in /  1003.3hPa Calm   2.0mph /  3.2km/h 83% 0.01in /  0.25mm 0.0 W/m2
04:03 65.5 °F /  18.6 °C 60.3 °F /  15.7 °C 29.63in /  1003.3hPa Calm   3.0mph /  4.8km/h 83% 0.01in /  0.25mm 0.0 W/m2
04:08 65.3 °F /  18.5 °C 60.3 °F /  15.7 °C 29.63in /  1003.3hPa Calm   1.0mph /  1.6km/h 84% 0.01in /  0.25mm 0.0 W/m2
04:14 65.3 °F /  18.5 °C 60.6 °F /  15.9 °C 29.63in /  1003.3hPa Calm   1.0mph /  1.6km/h 85% 0.01in /  0.25mm 0.0 W/m2
04:19 65.3 °F /  18.5 °C 60.6 °F /  15.9 °C 29.63in /  1003.3hPa SW 0.9mph /  1.4km/h 4.0mph /  6.4km/h 85% 0.01in /  0.25mm 0.0 W/m2
04:24 65.1 °F /  18.4 °C 60.1 °F /  15.6 °C 29.63in /  1003.3hPa Calm   1.0mph /  1.6km/h 84% 0.01in /  0.25mm 0.0 W/m2
04:29 64.9 °F /  18.3 °C 59.7 °F /  15.4 °C 29.62in /  1002.9hPa Calm     83% 0.00in /  0mm 0.0 W/m2
04:34 64.9 °F /  18.3 °C 59.7 °F /  15.4 °C 29.62in /  1002.9hPa Calm     83% 0.00in /  0mm 0.0 W/m2
04:39 64.8 °F /  18.2 °C 59.5 °F /  15.3 °C 29.63in /  1003.3hPa Calm     83% 0.00in /  0mm 0.0 W/m2
04:44 64.8 °F /  18.2 °C 59.9 °F /  15.5 °C 29.63in /  1003.3hPa Calm     84% 0.00in /  0mm 0.0 W/m2
04:50 64.8 °F /  18.2 °C 60.1 °F /  15.6 °C 29.62in /  1002.9hPa Calm   1.0mph /  1.6km/h 85% 0.00in /  0mm 0.0 W/m2
04:55 64.8 °F /  18.2 °C 60.1 °F /  15.6 °C 29.63in /  1003.3hPa Calm     85% 0.00in /  0mm 0.0 W/m2
05:00 64.8 °F /  18.2 °C 59.9 °F /  15.5 °C 29.62in /  1002.9hPa Calm     84% 0.00in /  0mm 0.0 W/m2
05:05 64.8 °F /  18.2 °C 60.1 °F /  15.6 °C 29.62in /  1002.9hPa Calm     85% 0.00in /  0mm 0.0 W/m2
05:10 64.8 °F /  18.2 °C 60.1 °F /  15.6 °C 29.62in /  1002.9hPa Calm   2.0mph /  3.2km/h 85% 0.00in /  0mm 0.0 W/m2
05:15 64.8 °F /  18.2 °C 60.1 °F /  15.6 °C 29.62in /  1002.9hPa Calm     85% 0.00in /  0mm 0.0 W/m2
05:20 64.8 °F /  18.2 °C 59.9 °F /  15.5 °C 29.62in /  1002.9hPa SE 0.9mph /  1.4km/h 1.0mph /  1.6km/h 84% 0.00in /  0mm 0.0 W/m2
05:25 64.6 °F /  18.1 °C 59.9 °F /  15.5 °C 29.62in /  1002.9hPa Calm     85% 0.00in /  0mm 0.0 W/m2
05:30 64.8 °F /  18.2 °C 60.4 °F /  15.8 °C 29.62in /  1002.9hPa ESE 2.0mph /  3.2km/h 2.0mph /  3.2km/h 86% 0.00in /  0mm 0.0 W/m2
05:35 64.8 °F /  18.2 °C 60.4 °F /  15.8 °C 29.62in /  1002.9hPa Calm   1.0mph /  1.6km/h 86% 0.00in /  0mm 0.0 W/m2
05:41 64.8 °F /  18.2 °C 60.4 °F /  15.8 °C 29.62in /  1002.9hPa Calm   1.0mph /  1.6km/h 86% 0.00in /  0mm 0.0 W/m2
05:46 64.8 °F /  18.2 °C 60.8 °F /  16 °C 29.62in /  1002.9hPa Calm   2.0mph /  3.2km/h 87% 0.00in /  0mm 0.0 W/m2
05:51 64.6 °F /  18.1 °C 60.3 °F /  15.7 °C 29.62in /  1002.9hPa East 0.9mph /  1.4km/h 2.0mph /  3.2km/h 86% 0.00in /  0mm 0.0 W/m2
05:56 64.6 °F /  18.1 °C 60.3 °F /  15.7 °C 29.62in /  1002.9hPa Calm   1.0mph /  1.6km/h 86% 0.00in /  0mm 0.0 W/m2
06:01 64.6 °F /  18.1 °C 60.3 °F /  15.7 °C 29.62in /  1002.9hPa Calm   3.0mph /  4.8km/h 86% 0.00in /  0mm 0.0 W/m2
06:06 64.6 °F /  18.1 °C 60.6 °F /  15.9 °C 29.62in /  1002.9hPa SE 2.9mph /  4.7km/h 7.0mph /  11.3km/h 87% 0.00in /  0mm 0.0 W/m2
06:11 64.6 °F /  18.1 °C 60.3 °F /  15.7 °C 29.62in /  1002.9hPa Calm   3.0mph /  4.8km/h 86% 0.00in /  0mm 0.0 W/m2
06:16 64.6 °F /  18.1 °C 60.3 °F /  15.7 °C 29.62in /  1002.9hPa Calm   3.0mph /  4.8km/h 86% 0.00in /  0mm 0.0 W/m2
06:21 64.4 °F /  18 °C 60.1 °F /  15.6 °C 29.62in /  1002.9hPa Calm   1.0mph /  1.6km/h 86% 0.00in /  0mm 0.0 W/m2
06:27 64.2 °F /  17.9 °C 59.9 °F /  15.5 °C 29.63in /  1003.3hPa ESE 0.9mph /  1.4km/h 4.0mph /  6.4km/h 86% 0.00in /  0mm 0.0 W/m2
06:32 64.2 °F /  17.9 °C 59.5 °F /  15.3 °C 29.62in /  1002.9hPa Calm   1.0mph /  1.6km/h 85% 0.00in /  0mm 0.0 W/m2
06:37 64.2 °F /  17.9 °C 59.5 °F /  15.3 °C 29.63in /  1003.3hPa Calm   3.0mph /  4.8km/h 85% 0.00in /  0mm 5.0 W/m2
06:42 64.2 °F /  17.9 °C 59.5 °F /  15.3 °C 29.63in /  1003.3hPa East 0.9mph /  1.4km/h 3.0mph /  4.8km/h 85% 0.00in /  0mm 7.0 W/m2
06:47 64.2 °F /  17.9 °C 59.9 °F /  15.5 °C 29.63in /  1003.3hPa Calm   3.0mph /  4.8km/h 86% 0.00in /  0mm 7.0 W/m2
06:52 64.2 °F /  17.9 °C 59.9 °F /  15.5 °C 29.63in /  1003.3hPa Calm   1.0mph /  1.6km/h 86% 0.00in /  0mm 9.0 W/m2
06:57 64.2 °F /  17.9 °C 59.9 °F /  15.5 °C 29.63in /  1003.3hPa Calm   3.0mph /  4.8km/h 86% 0.00in /  0mm 12.0 W/m2
07:02 64.2 °F /  17.9 °C 59.9 °F /  15.5 °C 29.64in /  1003.6hPa Calm     86% 0.00in /  0mm 16.0 W/m2
07:07 64.4 °F /  18 °C 60.1 °F /  15.6 °C 29.64in /  1003.6hPa Calm     86% 0.00in /  0mm 25.0 W/m2
07:13 64.6 °F /  18.1 °C 60.3 °F /  15.7 °C 29.64in /  1003.6hPa Calm     86% 0.00in /  0mm 33.0 W/m2
07:18 64.8 °F /  18.2 °C 60.1 °F /  15.6 °C 29.64in /  1003.6hPa Calm     85% 0.00in /  0mm 46.0 W/m2
07:23 64.9 °F /  18.3 °C 60.3 °F /  15.7 °C 29.65in /  1003.9hPa Calm   1.0mph /  1.6km/h 85% 0.00in /  0mm 54.0 W/m2
07:29 65.1 °F /  18.4 °C 60.1 °F /  15.6 °C 29.65in /  1003.9hPa Calm   1.0mph /  1.6km/h 84% 0.00in /  0mm 62.0 W/m2
07:35 65.5 °F /  18.6 °C 60.3 °F /  15.7 °C 29.65in /  1003.9hPa NE 0.9mph /  1.4km/h 2.0mph /  3.2km/h 83% 0.00in /  0mm 63.0 W/m2
07:40 66.0 °F /  18.9 °C 60.1 °F /  15.6 °C 29.65in /  1003.9hPa Calm   3.0mph /  4.8km/h 81% 0.00in /  0mm 70.0 W/m2
07:45 66.4 °F /  19.1 °C 60.1 °F /  15.6 °C 29.65in /  1003.9hPa Calm   1.0mph /  1.6km/h 80% 0.00in /  0mm 72.0 W/m2
07:50 66.7 °F /  19.3 °C 60.1 °F /  15.6 °C 29.65in /  1003.9hPa Calm   1.0mph /  1.6km/h 79% 0.00in /  0mm 79.0 W/m2
07:55 67.1 °F /  19.5 °C 60.4 °F /  15.8 °C 29.65in /  1003.9hPa Calm   1.0mph /  1.6km/h 79% 0.00in /  0mm 76.0 W/m2
08:00 67.5 °F /  19.7 °C 60.4 °F /  15.8 °C 29.65in /  1003.9hPa Calm   1.0mph /  1.6km/h 78% 0.00in /  0mm 72.0 W/m2
08:05 67.6 °F /  19.8 °C 60.6 °F /  15.9 °C 29.65in /  1003.9hPa Calm   1.0mph /  1.6km/h 78% 0.00in /  0mm 67.0 W/m2
08:10 68.0 °F /  20 °C 60.4 °F /  15.8 °C 29.65in /  1003.9hPa Calm     77% 0.00in /  0mm 76.0 W/m2
08:16 68.4 °F /  20.2 °C 60.4 °F /  15.8 °C 29.65in /  1003.9hPa Calm     76% 0.00in /  0mm 83.0 W/m2
08:21 68.5 °F /  20.3 °C 60.3 °F /  15.7 °C 29.65in /  1003.9hPa Calm     75% 0.00in /  0mm 72.0 W/m2
08:26 69.1 °F /  20.6 °C 60.4 °F /  15.8 °C 29.65in /  1003.9hPa Calm   1.0mph /  1.6km/h 74% 0.00in /  0mm 95.0 W/m2
08:32 69.4 °F /  20.8 °C 60.1 °F /  15.6 °C 29.65in /  1003.9hPa Calm     72% 0.00in /  0mm 325.0 W/m2
08:37 69.8 °F /  21 °C 59.5 °F /  15.3 °C 29.65in /  1003.9hPa Calm   1.0mph /  1.6km/h 70% 0.00in /  0mm 258.0 W/m2
08:42 70.3 °F /  21.3 °C 58.8 °F /  14.9 °C 29.65in /  1003.9hPa Calm     67% 0.00in /  0mm 338.0 W/m2
08:47 71.1 °F /  21.7 °C 58.3 °F /  14.6 °C 29.65in /  1003.9hPa SE 0.9mph /  1.4km/h 2.0mph /  3.2km/h 64% 0.00in /  0mm 510.0 W/m2
08:52 72.0 °F /  22.2 °C 58.3 °F /  14.6 °C 29.66in /  1004.3hPa Calm     62% 0.00in /  0mm 513.0 W/m2
08:57 73.6 °F /  23.1 °C 57.9 °F /  14.4 °C 29.66in /  1004.3hPa SSW 0.9mph /  1.4km/h 1.0mph /  1.6km/h 58% 0.00in /  0mm 373.0 W/m2
09:02 74.7 °F /  23.7 °C 57.9 °F /  14.4 °C 29.66in /  1004.3hPa Calm   2.0mph /  3.2km/h 56% 0.00in /  0mm 471.0 W/m2
09:07 75.6 °F /  24.2 °C 57.2 °F /  14 °C 29.66in /  1004.3hPa Calm   2.0mph /  3.2km/h 53% 0.00in /  0mm 589.0 W/m2
09:13 76.3 °F /  24.6 °C 56.8 °F /  13.8 °C 29.66in /  1004.3hPa Calm   2.0mph /  3.2km/h 51% 0.00in /  0mm 299.0 W/m2
09:18 76.6 °F /  24.8 °C 56.7 °F /  13.7 °C 29.66in /  1004.3hPa Calm   2.0mph /  3.2km/h 50% 0.00in /  0mm 276.0 W/m2
09:23 77.2 °F /  25.1 °C 55.9 °F /  13.3 °C 29.66in /  1004.3hPa Calm   3.0mph /  4.8km/h 48% 0.00in /  0mm 304.0 W/m2
09:29 77.9 °F /  25.5 °C 55.4 °F /  13 °C 29.66in /  1004.3hPa Calm   1.0mph /  1.6km/h 46% 0.00in /  0mm 541.0 W/m2
09:35 78.8 °F /  26 °C 54.5 °F /  12.5 °C 29.66in /  1004.3hPa North 4.0mph /  6.4km/h 5.0mph /  8km/h 43% 0.00in /  0mm 461.0 W/m2
09:40 79.9 °F /  26.6 °C 54.7 °F /  12.6 °C 29.65in /  1003.9hPa Calm   3.0mph /  4.8km/h 42% 0.00in /  0mm 969.0 W/m2
09:45 80.4 °F /  26.9 °C 54.0 °F /  12.2 °C 29.65in /  1003.9hPa NW 2.9mph /  4.7km/h 5.0mph /  8km/h 40% 0.00in /  0mm 895.0 W/m2
09:50 81.5 °F /  27.5 °C 54.1 °F /  12.3 °C 29.65in /  1003.9hPa NE 2.0mph /  3.2km/h 5.0mph /  8km/h 39% 0.00in /  0mm 942.0 W/m2
09:55 82.8 °F /  28.2 °C 54.5 °F /  12.5 °C 29.65in /  1003.9hPa SSW 2.0mph /  3.2km/h 4.0mph /  6.4km/h 38% 0.00in /  0mm 956.0 W/m2
10:01 83.7 °F /  28.7 °C 54.0 °F /  12.2 °C 29.65in /  1003.9hPa SE 4.0mph /  6.4km/h 8.0mph /  12.9km/h 36% 0.00in /  0mm 1048.0 W/m2
10:06 84.2 °F /  29 °C 52.7 °F /  11.5 °C 29.65in /  1003.9hPa East 2.0mph /  3.2km/h 7.0mph /  11.3km/h 34% 0.00in /  0mm 833.0 W/m2
10:11 84.4 °F /  29.1 °C 52.9 °F /  11.6 °C 29.65in /  1003.9hPa North 6.0mph /  9.7km/h 8.0mph /  12.9km/h 34% 0.00in /  0mm 633.0 W/m2
10:17 84.7 °F /  29.3 °C 51.6 °F /  10.9 °C 29.65in /  1003.9hPa NE 2.0mph /  3.2km/h 8.0mph /  12.9km/h 32% 0.00in /  0mm 466.0 W/m2
10:23 84.9 °F /  29.4 °C 51.8 °F /  11 °C 29.65in /  1003.9hPa East 0.9mph /  1.4km/h 7.0mph /  11.3km/h 32% 0.00in /  0mm 559.0 W/m2
10:28 84.9 °F /  29.4 °C 51.8 °F /  11 °C 29.65in /  1003.9hPa NE 4.0mph /  6.4km/h 8.0mph /  12.9km/h 32% 0.00in /  0mm 657.0 W/m2
10:33 85.1 °F /  29.5 °C 50.2 °F /  10.1 °C 29.65in /  1003.9hPa ENE 2.0mph /  3.2km/h 7.0mph /  11.3km/h 30% 0.00in /  0mm 628.0 W/m2
10:38 84.9 °F /  29.4 °C 50.0 °F /  10 °C 29.65in /  1003.9hPa ENE 6.9mph /  11.1km/h 12.0mph /  19.3km/h 30% 0.00in /  0mm 526.0 W/m2
10:43 84.9 °F /  29.4 °C 49.1 °F /  9.5 °C 29.65in /  1003.9hPa NNW 2.9mph /  4.7km/h 8.0mph /  12.9km/h 29% 0.00in /  0mm 540.0 W/m2
10:50 85.5 °F /  29.7 °C 50.5 °F /  10.3 °C 29.65in /  1003.9hPa ENE 4.0mph /  6.4km/h 8.0mph /  12.9km/h 30% 0.00in /  0mm 844.0 W/m2
10:55 86.0 °F /  30 °C 50.9 °F /  10.5 °C 29.65in /  1003.9hPa East 4.9mph /  7.9km/h 10.0mph /  16.1km/h 30% 0.00in /  0mm 591.0 W/m2
11:01 86.4 °F /  30.2 °C 50.4 °F /  10.2 °C 29.65in /  1003.9hPa NNE 2.0mph /  3.2km/h 3.0mph /  4.8km/h 29% 0.00in /  0mm 1088.0 W/m2
11:06 86.7 °F /  30.4 °C 50.7 °F /  10.4 °C 29.65in /  1003.9hPa ESE 6.9mph /  11.1km/h 10.0mph /  16.1km/h 29% 0.00in /  0mm 773.0 W/m2
11:11 87.6 °F /  30.9 °C 51.4 °F /  10.8 °C 29.65in /  1003.9hPa Calm   9.0mph /  14.5km/h 29% 0.00in /  0mm 682.0 W/m2
11:16 88.3 °F /  31.3 °C 51.1 °F /  10.6 °C 29.65in /  1003.9hPa North 4.9mph /  7.9km/h 10.0mph /  16.1km/h 28% 0.00in /  0mm 1153.0 W/m2
11:21 88.9 °F /  31.6 °C 49.6 °F /  9.8 °C 29.65in /  1003.9hPa NNE 2.0mph /  3.2km/h 17.0mph /  27.4km/h 26% 0.00in /  0mm 1086.0 W/m2
11:27 89.2 °F /  31.8 °C 49.8 °F /  9.9 °C 29.65in /  1003.9hPa East 13.0mph /  20.9km/h 14.0mph /  22.5km/h 26% 0.00in /  0mm 775.0 W/m2
11:33 89.1 °F /  31.7 °C 47.7 °F /  8.7 °C 29.65in /  1003.9hPa ENE 8.1mph /  13km/h 10.0mph /  16.1km/h 24% 0.00in /  0mm 729.0 W/m2
11:39 89.1 °F /  31.7 °C 47.7 °F /  8.7 °C 29.65in /  1003.9hPa East 2.0mph /  3.2km/h 12.0mph /  19.3km/h 24% 0.00in /  0mm 1000.0 W/m2
11:45 89.1 °F /  31.7 °C 47.7 °F /  8.7 °C 29.65in /  1003.9hPa NE 6.9mph /  11.1km/h 16.0mph /  25.7km/h 24% 0.00in /  0mm 914.0 W/m2
11:51 88.5 °F /  31.4 °C 46.0 °F /  7.8 °C 29.65in /  1003.9hPa NNE 4.0mph /  6.4km/h 12.0mph /  19.3km/h 23% 0.00in /  0mm 636.0 W/m2
11:56 88.5 °F /  31.4 °C 46.0 °F /  7.8 °C 29.65in /  1003.9hPa NNE 12.1mph /  19.5km/h 14.0mph /  22.5km/h 23% 0.00in /  0mm 726.0 W/m2
12:01 88.9 °F /  31.6 °C 46.2 °F /  7.9 °C 29.64in /  1003.6hPa North 2.0mph /  3.2km/h 14.0mph /  22.5km/h 23% 0.00in /  0mm 860.0 W/m2
12:06 89.6 °F /  32 °C 46.9 °F /  8.3 °C 29.65in /  1003.9hPa NE 11.0mph /  17.7km/h 17.0mph /  27.4km/h 23% 0.00in /  0mm 1318.0 W/m2
12:11 90.1 °F /  32.3 °C 46.2 °F /  7.9 °C 29.64in /  1003.6hPa ESE 11.0mph /  17.7km/h 16.0mph /  25.7km/h 22% 0.00in /  0mm 1220.0 W/m2
12:17 90.7 °F /  32.6 °C 46.6 °F /  8.1 °C 29.64in /  1003.6hPa NNE 14.1mph /  22.7km/h 15.0mph /  24.1km/h 22% 0.00in /  0mm 1039.0 W/m2
12:22 90.3 °F /  32.4 °C 45.1 °F /  7.3 °C 29.64in /  1003.6hPa SSE 4.0mph /  6.4km/h 11.0mph /  17.7km/h 21% 0.00in /  0mm 638.0 W/m2
12:27 90.0 °F /  32.2 °C 43.5 °F /  6.4 °C 29.64in /  1003.6hPa NE 11.0mph /  17.7km/h 16.0mph /  25.7km/h 20% 0.00in /  0mm 909.0 W/m2
12:33 89.4 °F /  31.9 °C 46.8 °F /  8.2 °C 29.64in /  1003.6hPa ESE 4.0mph /  6.4km/h 12.0mph /  19.3km/h 23% 0.00in /  0mm 545.0 W/m2
12:38 89.1 °F /  31.7 °C 47.7 °F /  8.7 °C 29.63in /  1003.3hPa East 8.1mph /  13km/h 10.0mph /  16.1km/h 24% 0.00in /  0mm 596.0 W/m2
12:43 88.5 °F /  31.4 °C 47.1 °F /  8.4 °C 29.63in /  1003.3hPa ENE 10.1mph /  16.3km/h 11.0mph /  17.7km/h 24% 0.00in /  0mm 441.0 W/m2
12:49 88.3 °F /  31.3 °C 45.9 °F /  7.7 °C 29.63in /  1003.3hPa East 4.9mph /  7.9km/h 12.0mph /  19.3km/h 23% 0.00in /  0mm 1039.0 W/m2
12:54 88.3 °F /  31.3 °C 45.9 °F /  7.7 °C 29.63in /  1003.3hPa ESE 2.9mph /  4.7km/h 10.0mph /  16.1km/h 23% 0.00in /  0mm 360.0 W/m2
12:59 88.7 °F /  31.5 °C 47.3 °F /  8.5 °C 29.63in /  1003.3hPa NNE 4.9mph /  7.9km/h 8.0mph /  12.9km/h 24% 0.00in /  0mm 958.0 W/m2
13:05 89.2 °F /  31.8 °C 46.6 °F /  8.1 °C 29.63in /  1003.3hPa NE 8.1mph /  13km/h 14.0mph /  22.5km/h 23% 0.00in /  0mm 392.0 W/m2
13:10 89.4 °F /  31.9 °C 46.8 °F /  8.2 °C 29.63in /  1003.3hPa NE 2.9mph /  4.7km/h 9.0mph /  14.5km/h 23% 0.00in /  0mm 483.0 W/m2
13:15 90.0 °F /  32.2 °C 48.4 °F /  9.1 °C 29.63in /  1003.3hPa NNE 2.9mph /  4.7km/h 10.0mph /  16.1km/h 24% 0.00in /  0mm 1380.0 W/m2
13:21 90.5 °F /  32.5 °C 48.7 °F /  9.3 °C 29.62in /  1002.9hPa East 8.9mph /  14.3km/h 10.0mph /  16.1km/h 24% 0.00in /  0mm 424.0 W/m2
13:26 90.0 °F /  32.2 °C 47.1 °F /  8.4 °C 29.63in /  1003.3hPa East 6.0mph /  9.7km/h 12.0mph /  19.3km/h 23% 0.00in /  0mm 469.0 W/m2
13:31 89.4 °F /  31.9 °C 47.8 °F /  8.8 °C 29.62in /  1002.9hPa NNE 8.1mph /  13km/h 13.0mph /  20.9km/h 24% 0.00in /  0mm 478.0 W/m2
13:37 89.4 °F /  31.9 °C 48.9 °F /  9.4 °C 29.62in /  1002.9hPa SE 6.0mph /  9.7km/h 9.0mph /  14.5km/h 25% 0.00in /  0mm 281.0 W/m2
13:42 89.1 °F /  31.7 °C 47.7 °F /  8.7 °C 29.62in /  1002.9hPa SSW 4.9mph /  7.9km/h 10.0mph /  16.1km/h 24% 0.00in /  0mm 295.0 W/m2
13:47 88.7 °F /  31.5 °C 47.3 °F /  8.5 °C 29.62in /  1002.9hPa ESE 6.0mph /  9.7km/h 8.0mph /  12.9km/h 24% 0.00in /  0mm 302.0 W/m2
13:53 88.5 °F /  31.4 °C 47.1 °F /  8.4 °C 29.62in /  1002.9hPa ENE 4.0mph /  6.4km/h 5.0mph /  8km/h 24% 0.00in /  0mm 643.0 W/m2
13:58 88.7 °F /  31.5 °C 47.3 °F /  8.5 °C 29.62in /  1002.9hPa North 8.1mph /  13km/h 13.0mph /  20.9km/h 24% 0.00in /  0mm 348.0 W/m2
14:03 88.5 °F /  31.4 °C 46.0 °F /  7.8 °C 29.62in /  1002.9hPa NE 10.1mph /  16.3km/h 11.0mph /  17.7km/h 23% 0.00in /  0mm 353.0 W/m2
14:09 88.3 °F /  31.3 °C 45.9 °F /  7.7 °C 29.61in /  1002.6hPa NNE 6.0mph /  9.7km/h 10.0mph /  16.1km/h 23% 0.00in /  0mm 343.0 W/m2
14:14 88.2 °F /  31.2 °C 46.8 °F /  8.2 °C 29.61in /  1002.6hPa NNE 2.9mph /  4.7km/h 7.0mph /  11.3km/h 24% 0.00in /  0mm 461.0 W/m2
14:19 88.5 °F /  31.4 °C 48.2 °F /  9 °C 29.61in /  1002.6hPa ENE 0.9mph /  1.4km/h 11.0mph /  17.7km/h 25% 0.00in /  0mm 1253.0 W/m2
14:24 89.4 °F /  31.9 °C 47.8 °F /  8.8 °C 29.60in /  1002.3hPa ENE 6.0mph /  9.7km/h 10.0mph /  16.1km/h 24% 0.00in /  0mm 397.0 W/m2
14:29 89.4 °F /  31.9 °C 46.8 °F /  8.2 °C 29.61in /  1002.6hPa NNE 4.0mph /  6.4km/h 7.0mph /  11.3km/h 23% 0.00in /  0mm 415.0 W/m2
14:34 89.4 °F /  31.9 °C 46.8 °F /  8.2 °C 29.60in /  1002.3hPa NNE 6.0mph /  9.7km/h 15.0mph /  24.1km/h 23% 0.00in /  0mm 956.0 W/m2
14:39 90.1 °F /  32.3 °C 46.2 °F /  7.9 °C 29.59in /  1001.9hPa ENE 2.0mph /  3.2km/h 10.0mph /  16.1km/h 22% 0.00in /  0mm 928.0 W/m2
14:44 90.9 °F /  32.7 °C 48.0 °F /  8.9 °C 29.59in /  1001.9hPa NE 4.0mph /  6.4km/h 10.0mph /  16.1km/h 23% 0.00in /  0mm 675.0 W/m2
14:49 90.9 °F /  32.7 °C 48.0 °F /  8.9 °C 29.59in /  1001.9hPa East 4.0mph /  6.4km/h 10.0mph /  16.1km/h 23% 0.00in /  0mm 301.0 W/m2
14:54 90.1 °F /  32.3 °C 47.3 °F /  8.5 °C 29.59in /  1001.9hPa SE 4.9mph /  7.9km/h 5.0mph /  8km/h 23% 0.00in /  0mm 258.0 W/m2
15:00 89.6 °F /  32 °C 46.9 °F /  8.3 °C 29.59in /  1001.9hPa SSE 2.9mph /  4.7km/h 9.0mph /  14.5km/h 23% 0.00in /  0mm 290.0 W/m2
15:05 89.8 °F /  32.1 °C 45.9 °F /  7.7 °C 29.59in /  1001.9hPa ENE 4.9mph /  7.9km/h 10.0mph /  16.1km/h 22% 0.00in /  0mm 1046.0 W/m2
15:10 90.7 °F /  32.6 °C 45.3 °F /  7.4 °C 29.58in /  1001.6hPa SSE 2.9mph /  4.7km/h 7.0mph /  11.3km/h 21% 0.00in /  0mm 956.0 W/m2
15:15 91.2 °F /  32.9 °C 45.9 °F /  7.7 °C 29.58in /  1001.6hPa ENE 2.0mph /  3.2km/h 14.0mph /  22.5km/h 21% 0.00in /  0mm 921.0 W/m2
15:20 91.9 °F /  33.3 °C 45.1 °F /  7.3 °C 29.58in /  1001.6hPa ESE 4.9mph /  7.9km/h 12.0mph /  19.3km/h 20% 0.00in /  0mm 958.0 W/m2
15:25 92.3 °F /  33.5 °C 45.5 °F /  7.5 °C 29.58in /  1001.6hPa NNE 4.0mph /  6.4km/h 16.0mph /  25.7km/h 20% 0.00in /  0mm 990.0 W/m2
15:30 92.5 °F /  33.6 °C 45.5 °F /  7.5 °C 29.57in /  1001.2hPa ESE 2.0mph /  3.2km/h 7.0mph /  11.3km/h 20% 0.00in /  0mm 257.0 W/m2
15:35 92.1 °F /  33.4 °C 43.9 °F /  6.6 °C 29.57in /  1001.2hPa NE 4.0mph /  6.4km/h 10.0mph /  16.1km/h 19% 0.00in /  0mm 264.0 W/m2
15:40 91.6 °F /  33.1 °C 44.8 °F /  7.1 °C 29.57in /  1001.2hPa NE 4.0mph /  6.4km/h 7.0mph /  11.3km/h 20% 0.00in /  0mm 267.0 W/m2
15:46 91.0 °F /  32.8 °C 45.7 °F /  7.6 °C 29.57in /  1001.2hPa ENE 8.1mph /  13km/h 12.0mph /  19.3km/h 21% 0.00in /  0mm 265.0 W/m2
15:51 90.3 °F /  32.4 °C 45.1 °F /  7.3 °C 29.57in /  1001.2hPa ENE 4.0mph /  6.4km/h 11.0mph /  17.7km/h 21% 0.00in /  0mm 176.0 W/m2
15:56 90.0 °F /  32.2 °C 46.0 °F /  7.8 °C 29.57in /  1001.2hPa ESE 12.1mph /  19.5km/h 13.0mph /  20.9km/h 22% 0.00in /  0mm 153.0 W/m2
16:01 89.6 °F /  32 °C 45.7 °F /  7.6 °C 29.58in /  1001.6hPa Calm   11.0mph /  17.7km/h 22% 0.00in /  0mm 149.0 W/m2
16:06 89.1 °F /  31.7 °C 46.4 °F /  8 °C 29.57in /  1001.2hPa ENE 0.9mph /  1.4km/h 10.0mph /  16.1km/h 23% 0.00in /  0mm 160.0 W/m2
16:11 88.5 °F /  31.4 °C 43.5 °F /  6.4 °C 29.57in /  1001.2hPa Calm   9.0mph /  14.5km/h 21% 0.00in /  0mm 156.0 W/m2
16:16 88.3 °F /  31.3 °C 43.5 °F /  6.4 °C 29.57in /  1001.2hPa East 8.1mph /  13km/h 8.1mph /  13km/h 21% 0.00in /  0mm 155.0 W/m2
16:21 88.2 °F /  31.2 °C 44.6 °F /  7 °C 29.56in /  1000.9hPa NNE 2.9mph /  4.7km/h 6.0mph /  9.7km/h 22% 0.00in /  0mm 192.0 W/m2
16:26 88.3 °F /  31.3 °C 44.6 °F /  7 °C 29.55in /  1000.6hPa Calm   5.0mph /  8km/h 22% 0.00in /  0mm 594.0 W/m2
16:32 88.9 °F /  31.6 °C 46.2 °F /  7.9 °C 29.55in /  1000.6hPa NNE 4.9mph /  7.9km/h 10.0mph /  16.1km/h 23% 0.00in /  0mm 671.0 W/m2
16:37 89.8 °F /  32.1 °C 45.9 °F /  7.7 °C 29.55in /  1000.6hPa ENE 4.0mph /  6.4km/h 12.0mph /  19.3km/h 22% 0.00in /  0mm 700.0 W/m2
16:42 90.7 °F /  32.6 °C 45.3 °F /  7.4 °C 29.56in /  1000.9hPa NNE 8.9mph /  14.3km/h 11.0mph /  17.7km/h 21% 0.00in /  0mm 694.0 W/m2
16:47 91.0 °F /  32.8 °C 45.7 °F /  7.6 °C 29.55in /  1000.6hPa NE 2.0mph /  3.2km/h 7.0mph /  11.3km/h 21% 0.00in /  0mm 359.0 W/m2
16:52 91.2 °F /  32.9 °C 45.9 °F /  7.7 °C 29.55in /  1000.6hPa NNW 4.0mph /  6.4km/h 11.0mph /  17.7km/h 21% 0.00in /  0mm 598.0 W/m2
16:57 91.6 °F /  33.1 °C 44.8 °F /  7.1 °C 29.55in /  1000.6hPa NE 4.0mph /  6.4km/h 9.0mph /  14.5km/h 20% 0.00in /  0mm 230.0 W/m2
17:02 91.6 °F /  33.1 °C 46.0 °F /  7.8 °C 29.54in /  1000.2hPa ESE 0.9mph /  1.4km/h 5.0mph /  8km/h 21% 0.00in /  0mm 503.0 W/m2
17:07 91.8 °F /  33.2 °C 46.2 °F /  7.9 °C 29.55in /  1000.6hPa NNE 2.9mph /  4.7km/h 7.0mph /  11.3km/h 21% 0.00in /  0mm 490.0 W/m2
17:12 91.8 °F /  33.2 °C 46.2 °F /  7.9 °C 29.55in /  1000.6hPa Calm   8.0mph /  12.9km/h 21% 0.00in /  0mm 192.0 W/m2
17:18 91.4 °F /  33 °C 46.0 °F /  7.8 °C 29.55in /  1000.6hPa ENE 8.1mph /  13km/h 10.0mph /  16.1km/h 21% 0.00in /  0mm 246.0 W/m2
17:23 90.9 °F /  32.7 °C 45.5 °F /  7.5 °C 29.55in /  1000.6hPa SE 0.9mph /  1.4km/h 6.0mph /  9.7km/h 21% 0.00in /  0mm 192.0 W/m2
17:28 90.7 °F /  32.6 °C 45.3 °F /  7.4 °C 29.55in /  1000.6hPa ESE 4.0mph /  6.4km/h 7.0mph /  11.3km/h 21% 0.00in /  0mm 128.0 W/m2
17:33 90.0 °F /  32.2 °C 44.8 °F /  7.1 °C 29.55in /  1000.6hPa East 4.0mph /  6.4km/h 8.0mph /  12.9km/h 21% 0.00in /  0mm 123.0 W/m2
17:38 89.8 °F /  32.1 °C 45.9 °F /  7.7 °C 29.55in /  1000.6hPa Calm   3.0mph /  4.8km/h 22% 0.00in /  0mm 111.0 W/m2
17:43 89.4 °F /  31.9 °C 45.5 °F /  7.5 °C 29.55in /  1000.6hPa NE 2.9mph /  4.7km/h 7.0mph /  11.3km/h 22% 0.00in /  0mm 97.0 W/m2
17:48 89.2 °F /  31.8 °C 45.5 °F /  7.5 °C 29.56in /  1000.9hPa NNE 4.9mph /  7.9km/h 5.0mph /  8km/h 22% 0.00in /  0mm 83.0 W/m2
17:53 88.9 °F /  31.6 °C 45.1 °F /  7.3 °C 29.56in /  1000.9hPa NNE 2.0mph /  3.2km/h 7.0mph /  11.3km/h 22% 0.00in /  0mm 70.0 W/m2
17:58 88.5 °F /  31.4 °C 44.8 °F /  7.1 °C 29.56in /  1000.9hPa NNW 0.9mph /  1.4km/h 4.0mph /  6.4km/h 22% 0.00in /  0mm 63.0 W/m2
18:04 88.2 °F /  31.2 °C 50.0 °F /  10 °C 29.57in /  1001.2hPa WNW 2.0mph /  3.2km/h 4.0mph /  6.4km/h 27% 0.00in /  0mm 62.0 W/m2
18:09 87.6 °F /  30.9 °C 50.5 °F /  10.3 °C 29.57in /  1001.2hPa West 2.0mph /  3.2km/h 4.0mph /  6.4km/h 28% 0.00in /  0mm 46.0 W/m2
18:14 86.7 °F /  30.4 °C 50.7 °F /  10.4 °C 29.57in /  1001.2hPa WSW 0.9mph /  1.4km/h 5.0mph /  8km/h 29% 0.00in /  0mm 35.0 W/m2
18:19 85.8 °F /  29.9 °C 49.8 °F /  9.9 °C 29.57in /  1001.2hPa North 4.0mph /  6.4km/h 7.0mph /  11.3km/h 29% 0.00in /  0mm 32.0 W/m2
18:24 85.3 °F /  29.6 °C 50.4 °F /  10.2 °C 29.57in /  1001.2hPa West 6.9mph /  11.1km/h 15.0mph /  24.1km/h 30% 0.00in /  0mm 23.0 W/m2
18:29 84.2 °F /  29 °C 51.1 °F /  10.6 °C 29.58in /  1001.6hPa SW 2.0mph /  3.2km/h 9.0mph /  14.5km/h 32% 0.00in /  0mm 19.0 W/m2
18:34 83.1 °F /  28.4 °C 51.1 °F /  10.6 °C 29.58in /  1001.6hPa WSW 2.9mph /  4.7km/h 9.0mph /  14.5km/h 33% 0.00in /  0mm 18.0 W/m2
18:39 82.6 °F /  28.1 °C 51.4 °F /  10.8 °C 29.59in /  1001.9hPa WSW 4.9mph /  7.9km/h 9.0mph /  14.5km/h 34% 0.00in /  0mm 16.0 W/m2
18:45 82.0 °F /  27.8 °C 52.5 °F /  11.4 °C 29.59in /  1001.9hPa West 10.1mph /  16.3km/h 10.1mph /  16.3km/h 36% 0.00in /  0mm 19.0 W/m2
18:50 81.5 °F /  27.5 °C 53.4 °F /  11.9 °C 29.59in /  1001.9hPa West 8.1mph /  13km/h 11.0mph /  17.7km/h 38% 0.00in /  0mm 21.0 W/m2
18:55 81.1 °F /  27.3 °C 54.5 °F /  12.5 °C 29.59in /  1001.9hPa Calm   6.0mph /  9.7km/h 40% 0.00in /  0mm 25.0 W/m2
19:00 80.8 °F /  27.1 °C 54.1 °F /  12.3 °C 29.60in /  1002.3hPa WSW 2.0mph /  3.2km/h 7.0mph /  11.3km/h 40% 0.00in /  0mm 26.0 W/m2
19:05 80.4 °F /  26.9 °C 54.5 °F /  12.5 °C 29.61in /  1002.6hPa Calm   5.0mph /  8km/h 41% 0.00in /  0mm 19.0 W/m2
19:10 80.1 °F /  26.7 °C 54.9 °F /  12.7 °C 29.62in /  1002.9hPa WSW 0.9mph /  1.4km/h 9.0mph /  14.5km/h 42% 0.00in /  0mm 12.0 W/m2
19:15 79.9 °F /  26.6 °C 54.7 °F /  12.6 °C 29.62in /  1002.9hPa NW 2.0mph /  3.2km/h 7.0mph /  11.3km/h 42% 0.00in /  0mm 7.0 W/m2
19:20 79.7 °F /  26.5 °C 57.7 °F /  14.3 °C 29.63in /  1003.3hPa WNW 4.9mph /  7.9km/h 7.0mph /  11.3km/h 47% 0.00in /  0mm 0.0 W/m2
19:26 78.8 °F /  26 °C 60.3 °F /  15.7 °C 29.63in /  1003.3hPa Calm   3.0mph /  4.8km/h 53% 0.00in /  0mm 0.0 W/m2
19:31 77.7 °F /  25.4 °C 59.7 °F /  15.4 °C 29.63in /  1003.3hPa West 0.9mph /  1.4km/h 3.0mph /  4.8km/h 54% 0.00in /  0mm 0.0 W/m2
19:36 76.6 °F /  24.8 °C 59.7 °F /  15.4 °C 29.63in /  1003.3hPa Calm   1.0mph /  1.6km/h 56% 0.00in /  0mm 0.0 W/m2
19:41 75.9 °F /  24.4 °C 58.6 °F /  14.8 °C 29.63in /  1003.3hPa WSW 2.9mph /  4.7km/h 7.0mph /  11.3km/h 55% 0.00in /  0mm 0.0 W/m2
19:46 75.6 °F /  24.2 °C 58.3 °F /  14.6 °C 29.63in /  1003.3hPa Calm   5.0mph /  8km/h 55% 0.00in /  0mm 0.0 W/m2
19:51 75.4 °F /  24.1 °C 57.0 °F /  13.9 °C 29.63in /  1003.3hPa West 6.9mph /  11.1km/h 9.0mph /  14.5km/h 53% 0.00in /  0mm 0.0 W/m2
19:56 75.4 °F /  24.1 °C 56.5 °F /  13.6 °C 29.63in /  1003.3hPa West 6.0mph /  9.7km/h 6.0mph /  9.7km/h 52% 0.00in /  0mm 0.0 W/m2
20:01 75.2 °F /  24 °C 56.3 °F /  13.5 °C 29.64in /  1003.6hPa West 2.9mph /  4.7km/h 8.0mph /  12.9km/h 52% 0.00in /  0mm 0.0 W/m2
20:06 75.0 °F /  23.9 °C 55.6 °F /  13.1 °C 29.64in /  1003.6hPa SSW 2.0mph /  3.2km/h 8.0mph /  12.9km/h 51% 0.00in /  0mm 0.0 W/m2
20:12 75.0 °F /  23.9 °C 56.1 °F /  13.4 °C 29.64in /  1003.6hPa WSW 2.9mph /  4.7km/h 5.0mph /  8km/h 52% 0.00in /  0mm 0.0 W/m2
20:17 75.0 °F /  23.9 °C 56.1 °F /  13.4 °C 29.65in /  1003.9hPa Calm   7.0mph /  11.3km/h 52% 0.01in /  0.25mm 0.0 W/m2
20:22 75.0 °F /  23.9 °C 56.7 °F /  13.7 °C 29.65in /  1003.9hPa Calm   3.0mph /  4.8km/h 53% 0.01in /  0.25mm 0.0 W/m2
20:27 75.0 °F /  23.9 °C 56.7 °F /  13.7 °C 29.65in /  1003.9hPa SSE 2.0mph /  3.2km/h 5.0mph /  8km/h 53% 0.01in /  0.25mm 0.0 W/m2
20:32 74.7 °F /  23.7 °C 58.5 °F /  14.7 °C 29.65in /  1003.9hPa SSW 2.9mph /  4.7km/h 10.0mph /  16.1km/h 57% 0.01in /  0.25mm 0.0 W/m2
20:37 73.6 °F /  23.1 °C 57.4 °F /  14.1 °C 29.64in /  1003.6hPa SSW 4.0mph /  6.4km/h 11.0mph /  17.7km/h 57% 0.01in /  0.25mm 0.0 W/m2
20:42 73.2 °F /  22.9 °C 57.6 °F /  14.2 °C 29.64in /  1003.6hPa SW 0.9mph /  1.4km/h 5.0mph /  8km/h 58% 0.01in /  0.25mm 0.0 W/m2
20:47 73.2 °F /  22.9 °C 57.0 °F /  13.9 °C 29.64in /  1003.6hPa South 2.9mph /  4.7km/h 4.0mph /  6.4km/h 57% 0.01in /  0.25mm 0.0 W/m2
20:52 73.2 °F /  22.9 °C 56.7 °F /  13.7 °C 29.64in /  1003.6hPa WSW 4.0mph /  6.4km/h 9.0mph /  14.5km/h 56% 0.01in /  0.25mm 0.0 W/m2
20:57 73.2 °F /  22.9 °C 56.7 °F /  13.7 °C 29.65in /  1003.9hPa WSW 4.0mph /  6.4km/h 11.0mph /  17.7km/h 56% 0.01in /  0.25mm 0.0 W/m2
21:03 73.0 °F /  22.8 °C 56.5 °F /  13.6 °C 29.65in /  1003.9hPa WSW 2.0mph /  3.2km/h 4.0mph /  6.4km/h 56% 0.01in /  0.25mm 0.0 W/m2
21:08 72.9 °F /  22.7 °C 57.7 °F /  14.3 °C 29.65in /  1003.9hPa SW 0.9mph /  1.4km/h 3.0mph /  4.8km/h 59% 0.01in /  0.25mm 0.0 W/m2
21:13 72.9 °F /  22.7 °C 58.6 °F /  14.8 °C 29.65in /  1003.9hPa West 0.9mph /  1.4km/h 3.0mph /  4.8km/h 61% 0.01in /  0.25mm 0.0 W/m2
21:18 72.3 °F /  22.4 °C 59.0 °F /  15 °C 29.65in /  1003.9hPa SW 2.9mph /  4.7km/h 3.0mph /  4.8km/h 63% 0.00in /  0mm 0.0 W/m2
21:23 72.1 °F /  22.3 °C 57.6 °F /  14.2 °C 29.65in /  1003.9hPa Calm   6.0mph /  9.7km/h 60% 0.00in /  0mm 0.0 W/m2
21:28 72.1 °F /  22.3 °C 58.5 °F /  14.7 °C 29.65in /  1003.9hPa WSW 2.0mph /  3.2km/h 2.0mph /  3.2km/h 62% 0.00in /  0mm 0.0 W/m2
21:34 72.0 °F /  22.2 °C 56.3 °F /  13.5 °C 29.65in /  1003.9hPa West 2.0mph /  3.2km/h 5.0mph /  8km/h 58% 0.00in /  0mm 0.0 W/m2
21:39 72.1 °F /  22.3 °C 56.1 °F /  13.4 °C 29.65in /  1003.9hPa Calm   3.0mph /  4.8km/h 57% 0.00in /  0mm 0.0 W/m2
21:44 72.1 °F /  22.3 °C 56.5 °F /  13.6 °C 29.66in /  1004.3hPa Calm     58% 0.00in /  0mm 0.0 W/m2
21:49 72.3 °F /  22.4 °C 57.2 °F /  14 °C 29.66in /  1004.3hPa Calm     59% 0.00in /  0mm 0.0 W/m2
21:54 72.3 °F /  22.4 °C 57.2 °F /  14 °C 29.67in /  1004.6hPa Calm   2.0mph /  3.2km/h 59% 0.00in /  0mm 0.0 W/m2
21:59 72.3 °F /  22.4 °C 56.7 °F /  13.7 °C 29.67in /  1004.6hPa Calm   4.0mph /  6.4km/h 58% 0.00in /  0mm 0.0 W/m2
22:04 72.3 °F /  22.4 °C 55.8 °F /  13.2 °C 29.67in /  1004.6hPa Calm   7.0mph /  11.3km/h 56% 0.00in /  0mm 0.0 W/m2
22:09 72.7 °F /  22.6 °C 55.6 °F /  13.1 °C 29.67in /  1004.6hPa Calm   3.0mph /  4.8km/h 55% 0.00in /  0mm 0.0 W/m2
22:14 72.7 °F /  22.6 °C 55.6 °F /  13.1 °C 29.67in /  1004.6hPa Calm   3.0mph /  4.8km/h 55% 0.00in /  0mm 0.0 W/m2
22:20 72.9 °F /  22.7 °C 56.3 °F /  13.5 °C 29.67in /  1004.6hPa Calm   1.0mph /  1.6km/h 56% 0.00in /  0mm 0.0 W/m2
22:25 72.9 °F /  22.7 °C 55.8 °F /  13.2 °C 29.67in /  1004.6hPa Calm   3.0mph /  4.8km/h 55% 0.00in /  0mm 0.0 W/m2
22:30 72.9 °F /  22.7 °C 55.8 °F /  13.2 °C 29.67in /  1004.6hPa SSW 0.9mph /  1.4km/h 3.0mph /  4.8km/h 55% 0.00in /  0mm 0.0 W/m2
22:35 72.7 °F /  22.6 °C 55.6 °F /  13.1 °C 29.67in /  1004.6hPa Calm   1.0mph /  1.6km/h 55% 0.00in /  0mm 0.0 W/m2
22:40 72.7 °F /  22.6 °C 55.0 °F /  12.8 °C 29.67in /  1004.6hPa SW 0.9mph /  1.4km/h 1.0mph /  1.6km/h 54% 0.00in /  0mm 0.0 W/m2
22:45 72.7 °F /  22.6 °C 55.0 °F /  12.8 °C 29.67in /  1004.6hPa Calm   4.0mph /  6.4km/h 54% 0.00in /  0mm 0.0 W/m2
22:50 72.7 °F /  22.6 °C 55.0 °F /  12.8 °C 29.67in /  1004.6hPa Calm   6.0mph /  9.7km/h 54% 0.00in /  0mm 0.0 W/m2
22:56 72.7 °F /  22.6 °C 54.5 °F /  12.5 °C 29.67in /  1004.6hPa South 6.0mph /  9.7km/h 6.0mph /  9.7km/h 53% 0.00in /  0mm 0.0 W/m2
23:01 72.7 °F /  22.6 °C 54.5 °F /  12.5 °C 29.67in /  1004.6hPa WSW 0.9mph /  1.4km/h 5.0mph /  8km/h 53% 0.00in /  0mm 0.0 W/m2
23:06 72.7 °F /  22.6 °C 54.5 °F /  12.5 °C 29.67in /  1004.6hPa Calm   5.0mph /  8km/h 53% 0.00in /  0mm 0.0 W/m2
23:11 72.7 °F /  22.6 °C 54.5 °F /  12.5 °C 29.67in /  1004.6hPa SW 4.0mph /  6.4km/h 6.0mph /  9.7km/h 53% 0.00in /  0mm 0.0 W/m2
23:16 72.7 °F /  22.6 °C 54.0 °F /  12.2 °C 29.67in /  1004.6hPa SSW 2.0mph /  3.2km/h 7.0mph /  11.3km/h 52% 0.00in /  0mm 0.0 W/m2
23:21 72.7 °F /  22.6 °C 54.0 °F /  12.2 °C 29.67in /  1004.6hPa SW 2.9mph /  4.7km/h 6.0mph /  9.7km/h 52% 0.00in /  0mm 0.0 W/m2
23:26 72.7 °F /  22.6 °C 54.0 °F /  12.2 °C 29.67in /  1004.6hPa South 2.0mph /  3.2km/h 7.0mph /  11.3km/h 52% 0.00in /  0mm 0.0 W/m2
23:31 72.7 °F /  22.6 °C 54.0 °F /  12.2 °C 29.67in /  1004.6hPa SSW 0.9mph /  1.4km/h 3.0mph /  4.8km/h 52% 0.00in /  0mm 0.0 W/m2
23:36 72.7 °F /  22.6 °C 54.0 °F /  12.2 °C 29.67in /  1004.6hPa SW 0.9mph /  1.4km/h 7.0mph /  11.3km/h 52% 0.00in /  0mm 0.0 W/m2
23:41 72.7 °F /  22.6 °C 54.0 °F /  12.2 °C 29.67in /  1004.6hPa South 0.9mph /  1.4km/h 6.0mph /  9.7km/h 52% 0.00in /  0mm 0.0 W/m2
23:46 72.7 °F /  22.6 °C 54.0 °F /  12.2 °C 29.67in /  1004.6hPa West 2.0mph /  3.2km/h 10.0mph /  16.1km/h 52% 0.00in /  0mm 0.0 W/m2
23:52 72.7 °F /  22.6 °C 54.0 °F /  12.2 °C 29.67in /  1004.6hPa Calm   5.0mph /  8km/h 52% 0.00in /  0mm 0.0 W/m2
23:57 72.5 °F /  22.5 °C 54.0 °F /  12.2 °C 29.67in /  1004.6hPa West 4.0mph /  6.4km/h 5.0mph /  8km/h 52% 0.00in /  0mm 0.0 W/m2
Olympia, Windhoek, Namibia
Compliments of Weather Underground - 3.25 mb